QTR703 OTHH-OMDB
Flight info
| Callsign | QTR703 |
|---|---|
| Flight time | 0h 49m |
| Altitude | 21000 |
| Route | ALSEM L305 ITBUL M677 VUTEB |
| Aircraft | B38M/M-SDE1FGHILORVWXY/HB1 |
Departure
| Time | 2026-05-03 22:17 |
|---|---|
| Airport | Hamad International Airport (OTHH) |
Arrival
| Time | 2026-05-03 23:07 |
|---|---|
| Airport | Dubai International Airport (OMDB) |
| Time | Latitude | Longitude | Altitude | Speed | Heading |
|---|---|---|---|---|---|
| 2026-05-03 21:49 | 25.27153 | 51.61194 | 32 ft | 0 kts | 113° |
| 2026-05-03 21:56 | 25.27153 | 51.61193 | 32 ft | 2 kts | 113° |
| 2026-05-03 21:56 | 25.27163 | 51.61168 | 32 ft | 4 kts | 114° |
| 2026-05-03 21:57 | 25.27173 | 51.61142 | 33 ft | 4 kts | 114° |
| 2026-05-03 21:57 | 25.27184 | 51.61115 | 33 ft | 3 kts | 114° |
| 2026-05-03 21:57 | 25.27191 | 51.61094 | 33 ft | 4 kts | 90° |
| 2026-05-03 21:57 | 25.27185 | 51.61066 | 33 ft | 4 kts | 68° |
| 2026-05-03 21:58 | 25.27183 | 51.61059 | 33 ft | 1 kts | 68° |
| 2026-05-03 22:07 | 25.27184 | 51.61064 | 33 ft | 2 kts | 69° |
| 2026-05-03 22:08 | 25.27194 | 51.61088 | 33 ft | 5 kts | 57° |
| 2026-05-03 22:08 | 25.27229 | 51.61109 | 33 ft | 7 kts | 2° |
| 2026-05-03 22:08 | 25.27279 | 51.61103 | 33 ft | 8 kts | 21° |
| 2026-05-03 22:08 | 25.27306 | 51.61159 | 32 ft | 10 kts | 69° |
| 2026-05-03 22:09 | 25.27335 | 51.61236 | 32 ft | 12 kts | 68° |
| 2026-05-03 22:09 | 25.27369 | 51.61331 | 32 ft | 15 kts | 68° |
| 2026-05-03 22:09 | 25.27409 | 51.61441 | 32 ft | 15 kts | 68° |
| 2026-05-03 22:10 | 25.27286 | 51.61601 | 32 ft | 18 kts | 159° |
| 2026-05-03 22:10 | 25.27164 | 51.61654 | 32 ft | 21 kts | 158° |
| 2026-05-03 22:10 | 25.27025 | 51.61715 | 32 ft | 23 kts | 159° |
| 2026-05-03 22:10 | 25.26877 | 51.61781 | 32 ft | 23 kts | 158° |
| 2026-05-03 22:11 | 25.26724 | 51.61849 | 32 ft | 25 kts | 158° |
| 2026-05-03 22:11 | 25.26557 | 51.61923 | 32 ft | 27 kts | 158° |
| 2026-05-03 22:11 | 25.26376 | 51.62001 | 32 ft | 29 kts | 158° |
| 2026-05-03 22:11 | 25.26222 | 51.62070 | 32 ft | 21 kts | 158° |
| 2026-05-03 22:12 | 25.26084 | 51.62131 | 32 ft | 23 kts | 158° |
| 2026-05-03 22:12 | 25.25923 | 51.62202 | 32 ft | 26 kts | 158° |
| 2026-05-03 22:12 | 25.25754 | 51.62276 | 32 ft | 25 kts | 158° |
| 2026-05-03 22:12 | 25.25587 | 51.62349 | 32 ft | 21 kts | 158° |
| 2026-05-03 22:13 | 25.25480 | 51.62411 | 32 ft | 15 kts | 122° |
| 2026-05-03 22:13 | 25.25503 | 51.62522 | 31 ft | 8 kts | 68° |
| 2026-05-03 22:13 | 25.25510 | 51.62542 | 30 ft | 0 kts | 68° |
| 2026-05-03 22:15 | 25.25517 | 51.62560 | 30 ft | 5 kts | 68° |
| 2026-05-03 22:15 | 25.25540 | 51.62605 | 29 ft | 9 kts | 60° |
| 2026-05-03 22:15 | 25.25579 | 51.62656 | 29 ft | 9 kts | 7° |
| 2026-05-03 22:16 | 25.25632 | 51.62640 | 29 ft | 0 kts | 340° |
| 2026-05-03 22:16 | 25.25758 | 51.62585 | 28 ft | 53 kts | 338° |
| 2026-05-03 22:16 | 25.26309 | 51.62340 | 30 ft | 114 kts | 339° |
| 2026-05-03 22:17 | 25.27201 | 51.61939 | 53 ft | 157 kts | 337° |
| 2026-05-03 22:17 | 25.28252 | 51.61515 | 505 ft | 166 kts | 337° |
| 2026-05-03 22:17 | 25.29290 | 51.61048 | 992 ft | 172 kts | 338° |
| 2026-05-03 22:17 | 25.30374 | 51.60564 | 1650 ft | 173 kts | 339° |
| 2026-05-03 22:18 | 25.31518 | 51.60054 | 2082 ft | 195 kts | 338° |
| 2026-05-03 22:18 | 25.32667 | 51.59542 | 2462 ft | 214 kts | 338° |
| 2026-05-03 22:18 | 25.34136 | 51.58992 | 2966 ft | 231 kts | 351° |
| 2026-05-03 22:18 | 25.35758 | 51.59167 | 3455 ft | 242 kts | 14° |
| 2026-05-03 22:19 | 25.37359 | 51.59765 | 3528 ft | 242 kts | 15° |
| 2026-05-03 22:19 | 25.38956 | 51.60351 | 3661 ft | 242 kts | 15° |
| 2026-05-03 22:19 | 25.40514 | 51.60913 | 3792 ft | 244 kts | 14° |
| 2026-05-03 22:19 | 25.42132 | 51.61490 | 3930 ft | 245 kts | 14° |
| 2026-05-03 22:20 | 25.43753 | 51.62068 | 4506 ft | 242 kts | 15° |
| 2026-05-03 22:20 | 25.45230 | 51.63008 | 5272 ft | 257 kts | 40° |
| 2026-05-03 22:20 | 25.46173 | 51.64731 | 6071 ft | 270 kts | 71° |
| 2026-05-03 22:20 | 25.46266 | 51.66797 | 6744 ft | 282 kts | 100° |
| 2026-05-03 22:21 | 25.45792 | 51.68904 | 7539 ft | 285 kts | 101° |
| 2026-05-03 22:21 | 25.45354 | 51.71055 | 8304 ft | 288 kts | 101° |
| 2026-05-03 22:21 | 25.44915 | 51.73240 | 9107 ft | 291 kts | 101° |
| 2026-05-03 22:21 | 25.44472 | 51.75449 | 9784 ft | 297 kts | 101° |
| 2026-05-03 22:22 | 25.44018 | 51.77713 | 9936 ft | 315 kts | 101° |
| 2026-05-03 22:22 | 25.43535 | 51.80116 | 9951 ft | 325 kts | 101° |
| 2026-05-03 22:22 | 25.43040 | 51.82580 | 9971 ft | 331 kts | 101° |
| 2026-05-03 22:22 | 25.42542 | 51.85063 | 9987 ft | 333 kts | 101° |
| 2026-05-03 22:23 | 25.42039 | 51.87564 | 10001 ft | 334 kts | 101° |
| 2026-05-03 22:23 | 25.41540 | 51.90047 | 10001 ft | 333 kts | 101° |
| 2026-05-03 22:23 | 25.41030 | 51.92577 | 10004 ft | 333 kts | 101° |
| 2026-05-03 22:23 | 25.40526 | 51.95077 | 10007 ft | 334 kts | 101° |
| 2026-05-03 22:24 | 25.40027 | 51.97555 | 10007 ft | 334 kts | 101° |
| 2026-05-03 22:24 | 25.39519 | 52.00064 | 10004 ft | 333 kts | 101° |
| 2026-05-03 22:24 | 25.39015 | 52.02558 | 10007 ft | 333 kts | 101° |
| 2026-05-03 22:24 | 25.38506 | 52.05078 | 10145 ft | 341 kts | 101° |
| 2026-05-03 22:25 | 25.37979 | 52.07682 | 10614 ft | 354 kts | 101° |
| 2026-05-03 22:25 | 25.37436 | 52.10359 | 11208 ft | 359 kts | 101° |
| 2026-05-03 22:25 | 25.36890 | 52.13053 | 12015 ft | 361 kts | 101° |
| 2026-05-03 22:25 | 25.36338 | 52.15771 | 12778 ft | 364 kts | 101° |
| 2026-05-03 22:26 | 25.35783 | 52.18513 | 13611 ft | 366 kts | 99° |
| 2026-05-03 22:26 | 25.35646 | 52.21228 | 14296 ft | 366 kts | 81° |
| 2026-05-03 22:26 | 25.36106 | 52.23990 | 14982 ft | 369 kts | 77° |
| 2026-05-03 22:26 | 25.36589 | 52.26709 | 15607 ft | 375 kts | 76° |
| 2026-05-03 22:27 | 25.37102 | 52.29518 | 16311 ft | 379 kts | 76° |
| 2026-05-03 22:27 | 25.37627 | 52.32343 | 16914 ft | 384 kts | 76° |
| 2026-05-03 22:27 | 25.38157 | 52.35168 | 17558 ft | 388 kts | 76° |
| 2026-05-03 22:27 | 25.38706 | 52.38092 | 18184 ft | 392 kts | 76° |
| 2026-05-03 22:28 | 25.39255 | 52.41016 | 18725 ft | 396 kts | 76° |
| 2026-05-03 22:28 | 25.39812 | 52.43982 | 19287 ft | 399 kts | 76° |
| 2026-05-03 22:28 | 25.40374 | 52.46979 | 19846 ft | 403 kts | 76° |
| 2026-05-03 22:28 | 25.40926 | 52.49923 | 20361 ft | 407 kts | 76° |
| 2026-05-03 22:29 | 25.41511 | 52.53048 | 20860 ft | 412 kts | 76° |
| 2026-05-03 22:29 | 25.42103 | 52.56209 | 20941 ft | 425 kts | 76° |
| 2026-05-03 22:29 | 25.42704 | 52.59427 | 20951 ft | 438 kts | 76° |
| 2026-05-03 22:29 | 25.43320 | 52.62733 | 20960 ft | 448 kts | 76° |
| 2026-05-03 22:30 | 25.43954 | 52.66135 | 20971 ft | 462 kts | 76° |
| 2026-05-03 22:30 | 25.44610 | 52.69662 | 20970 ft | 471 kts | 76° |
| 2026-05-03 22:30 | 25.45275 | 52.73232 | 20945 ft | 475 kts | 76° |
| 2026-05-03 22:30 | 25.45947 | 52.76807 | 20827 ft | 476 kts | 76° |
| 2026-05-03 22:31 | 25.46614 | 52.80404 | 20794 ft | 477 kts | 76° |
| 2026-05-03 22:31 | 25.47280 | 52.83994 | 20794 ft | 477 kts | 76° |
| 2026-05-03 22:31 | 25.47939 | 52.87547 | 20790 ft | 477 kts | 76° |
| 2026-05-03 22:31 | 25.48615 | 52.91188 | 20791 ft | 477 kts | 76° |
| 2026-05-03 22:32 | 25.49272 | 52.94726 | 20791 ft | 477 kts | 76° |
| 2026-05-03 22:32 | 25.49940 | 52.98321 | 20787 ft | 477 kts | 76° |
| 2026-05-03 22:32 | 25.50607 | 53.01917 | 20795 ft | 477 kts | 76° |
| 2026-05-03 22:32 | 25.51268 | 53.05525 | 20795 ft | 478 kts | 76° |
| 2026-05-03 22:33 | 25.51929 | 53.09133 | 20776 ft | 478 kts | 76° |
| 2026-05-03 22:33 | 25.52591 | 53.12750 | 20792 ft | 478 kts | 76° |
| 2026-05-03 22:33 | 25.53252 | 53.16357 | 20785 ft | 478 kts | 76° |
| 2026-05-03 22:33 | 25.53895 | 53.19951 | 20776 ft | 479 kts | 79° |
| 2026-05-03 22:34 | 25.54045 | 53.23643 | 20801 ft | 481 kts | 89° |
| 2026-05-03 22:34 | 25.54119 | 53.27356 | 20775 ft | 481 kts | 86° |
| 2026-05-03 22:34 | 25.54261 | 53.31054 | 20792 ft | 482 kts | 85° |
| 2026-05-03 22:34 | 25.54426 | 53.34756 | 20785 ft | 482 kts | 85° |
| 2026-05-03 22:35 | 25.54605 | 53.38471 | 20789 ft | 482 kts | 85° |
| 2026-05-03 22:35 | 25.54788 | 53.42164 | 20780 ft | 482 kts | 85° |
| 2026-05-03 22:35 | 25.54969 | 53.45831 | 20789 ft | 482 kts | 85° |
| 2026-05-03 22:35 | 25.55151 | 53.49508 | 20785 ft | 482 kts | 85° |
| 2026-05-03 22:36 | 25.55331 | 53.53190 | 20776 ft | 482 kts | 85° |
| 2026-05-03 22:36 | 25.55513 | 53.56907 | 20773 ft | 482 kts | 85° |
| 2026-05-03 22:36 | 25.55693 | 53.60611 | 20780 ft | 482 kts | 85° |
| 2026-05-03 22:36 | 25.55873 | 53.64330 | 20783 ft | 482 kts | 85° |
| 2026-05-03 22:37 | 25.56050 | 53.68020 | 20783 ft | 483 kts | 85° |
| 2026-05-03 22:37 | 25.56229 | 53.71760 | 20785 ft | 487 kts | 85° |
| 2026-05-03 22:37 | 25.56406 | 53.75486 | 20786 ft | 487 kts | 85° |
| 2026-05-03 22:37 | 25.56584 | 53.79239 | 20772 ft | 488 kts | 85° |
| 2026-05-03 22:38 | 25.56761 | 53.82992 | 20785 ft | 488 kts | 85° |
| 2026-05-03 22:38 | 25.56937 | 53.86741 | 20776 ft | 488 kts | 85° |
| 2026-05-03 22:38 | 25.57112 | 53.90499 | 20780 ft | 488 kts | 85° |
| 2026-05-03 22:38 | 25.57286 | 53.94256 | 20781 ft | 488 kts | 85° |
| 2026-05-03 22:39 | 25.57458 | 53.98002 | 20781 ft | 488 kts | 85° |
| 2026-05-03 22:39 | 25.57630 | 54.01747 | 20779 ft | 488 kts | 85° |
| 2026-05-03 22:39 | 25.57797 | 54.05417 | 20783 ft | 467 kts | 85° |
| 2026-05-03 22:39 | 25.57952 | 54.08850 | 20787 ft | 456 kts | 85° |
| 2026-05-03 22:40 | 25.58110 | 54.12347 | 20729 ft | 453 kts | 85° |
| 2026-05-03 22:40 | 25.58261 | 54.15717 | 20440 ft | 441 kts | 85° |
| 2026-05-03 22:40 | 25.58412 | 54.19092 | 19921 ft | 438 kts | 85° |
| 2026-05-03 22:40 | 25.58559 | 54.22417 | 19452 ft | 433 kts | 85° |
| 2026-05-03 22:41 | 25.58706 | 54.25737 | 18958 ft | 430 kts | 85° |
| 2026-05-03 22:41 | 25.58847 | 54.28951 | 18474 ft | 428 kts | 85° |
| 2026-05-03 22:41 | 25.58993 | 54.32269 | 17979 ft | 425 kts | 85° |
| 2026-05-03 22:41 | 25.59133 | 54.35523 | 17437 ft | 422 kts | 85° |
| 2026-05-03 22:42 | 25.59273 | 54.38758 | 16946 ft | 418 kts | 85° |
| 2026-05-03 22:42 | 25.59410 | 54.41948 | 16478 ft | 414 kts | 85° |
| 2026-05-03 22:42 | 25.59546 | 54.45114 | 16011 ft | 410 kts | 85° |
| 2026-05-03 22:42 | 25.59679 | 54.48256 | 15569 ft | 406 kts | 85° |
| 2026-05-03 22:43 | 25.59811 | 54.51379 | 15107 ft | 403 kts | 85° |
| 2026-05-03 22:43 | 25.59942 | 54.54473 | 14659 ft | 400 kts | 85° |
| 2026-05-03 22:43 | 25.60070 | 54.57521 | 14214 ft | 397 kts | 86° |
| 2026-05-03 22:43 | 25.60198 | 54.60552 | 13773 ft | 394 kts | 86° |
| 2026-05-03 22:44 | 25.60322 | 54.63549 | 13303 ft | 391 kts | 86° |
| 2026-05-03 22:44 | 25.60444 | 54.66515 | 13031 ft | 382 kts | 86° |
| 2026-05-03 22:44 | 25.60563 | 54.69398 | 12971 ft | 368 kts | 86° |
| 2026-05-03 22:44 | 25.60677 | 54.72182 | 12824 ft | 357 kts | 86° |
| 2026-05-03 22:45 | 25.60788 | 54.74885 | 12653 ft | 347 kts | 86° |
| 2026-05-03 22:45 | 25.60894 | 54.77531 | 12478 ft | 338 kts | 86° |
| 2026-05-03 22:45 | 25.60999 | 54.80101 | 12324 ft | 329 kts | 86° |
| 2026-05-03 22:45 | 25.61098 | 54.82571 | 12172 ft | 321 kts | 86° |
| 2026-05-03 22:46 | 25.61195 | 54.84998 | 12023 ft | 313 kts | 86° |
| 2026-05-03 22:46 | 25.61182 | 54.87371 | 11824 ft | 307 kts | 96° |
| 2026-05-03 22:46 | 25.60875 | 54.89697 | 11566 ft | 303 kts | 97° |
| 2026-05-03 22:46 | 25.60594 | 54.92002 | 11304 ft | 300 kts | 97° |
| 2026-05-03 22:47 | 25.60333 | 54.94287 | 11040 ft | 297 kts | 96° |
| 2026-05-03 22:47 | 25.60083 | 54.96554 | 10773 ft | 296 kts | 96° |
| 2026-05-03 22:47 | 25.59838 | 54.98834 | 10515 ft | 299 kts | 96° |
| 2026-05-03 22:47 | 25.59596 | 55.01127 | 10245 ft | 300 kts | 96° |
| 2026-05-03 22:48 | 25.59355 | 55.03416 | 10005 ft | 299 kts | 96° |
| 2026-05-03 22:48 | 25.59077 | 55.05666 | 9942 ft | 296 kts | 104° |
| 2026-05-03 22:48 | 25.58243 | 55.07661 | 9961 ft | 294 kts | 124° |
| 2026-05-03 22:48 | 25.57155 | 55.09607 | 9971 ft | 297 kts | 122° |
| 2026-05-03 22:49 | 25.56104 | 55.11533 | 9948 ft | 296 kts | 123° |
| 2026-05-03 22:49 | 25.55037 | 55.13468 | 9958 ft | 297 kts | 123° |
| 2026-05-03 22:49 | 25.53959 | 55.15420 | 9961 ft | 297 kts | 123° |
| 2026-05-03 22:49 | 25.52878 | 55.17372 | 9966 ft | 297 kts | 123° |
| 2026-05-03 22:50 | 25.51800 | 55.19319 | 9964 ft | 297 kts | 123° |
| 2026-05-03 22:50 | 25.50727 | 55.21256 | 9962 ft | 297 kts | 123° |
| 2026-05-03 22:50 | 25.49651 | 55.23199 | 9965 ft | 297 kts | 123° |
| 2026-05-03 22:50 | 25.48586 | 55.25123 | 9960 ft | 294 kts | 123° |
| 2026-05-03 22:51 | 25.47543 | 55.27008 | 9955 ft | 281 kts | 122° |
| 2026-05-03 22:51 | 25.46528 | 55.28842 | 9974 ft | 277 kts | 122° |
| 2026-05-03 22:51 | 25.45542 | 55.30623 | 9974 ft | 277 kts | 122° |
| 2026-05-03 22:51 | 25.44872 | 55.31829 | 9973 ft | 277 kts | 122° |
| 2026-05-03 22:52 | 25.43478 | 55.34211 | 9807 ft | 275 kts | 133° |
| 2026-05-03 22:52 | 25.41974 | 55.35468 | 9319 ft | 276 kts | 161° |
| 2026-05-03 22:52 | 25.40158 | 55.35904 | 8793 ft | 275 kts | 187° |
| 2026-05-03 22:52 | 25.38395 | 55.35340 | 8390 ft | 262 kts | 220° |
| 2026-05-03 22:53 | 25.37614 | 55.34492 | 8238 ft | 250 kts | 242° |
| 2026-05-03 22:53 | 25.37101 | 55.32786 | 8069 ft | 235 kts | 264° |
| 2026-05-03 22:53 | 25.37334 | 55.30582 | 7862 ft | 222 kts | 292° |
| 2026-05-03 22:53 | 25.37963 | 55.29085 | 7716 ft | 219 kts | 296° |
| 2026-05-03 22:54 | 25.38650 | 55.27591 | 7614 ft | 221 kts | 297° |
| 2026-05-03 22:54 | 25.39381 | 55.26111 | 7480 ft | 222 kts | 298° |
| 2026-05-03 22:54 | 25.39868 | 55.25162 | 7392 ft | 222 kts | 298° |
| 2026-05-03 22:54 | 25.40644 | 55.23686 | 7266 ft | 222 kts | 299° |
| 2026-05-03 22:55 | 25.41433 | 55.22214 | 7133 ft | 222 kts | 300° |
| 2026-05-03 22:55 | 25.42216 | 55.20769 | 6993 ft | 221 kts | 300° |
| 2026-05-03 22:55 | 25.43010 | 55.19309 | 6872 ft | 221 kts | 300° |
| 2026-05-03 22:55 | 25.43805 | 55.17859 | 6721 ft | 220 kts | 300° |
| 2026-05-03 22:56 | 25.44594 | 55.16424 | 6594 ft | 221 kts | 300° |
| 2026-05-03 22:56 | 25.45396 | 55.14967 | 6478 ft | 221 kts | 300° |
| 2026-05-03 22:56 | 25.46193 | 55.13530 | 6341 ft | 220 kts | 300° |
| 2026-05-03 22:56 | 25.46991 | 55.12089 | 6029 ft | 220 kts | 300° |
| 2026-05-03 22:57 | 25.47804 | 55.10623 | 5566 ft | 230 kts | 300° |
| 2026-05-03 22:57 | 25.48642 | 55.09112 | 5237 ft | 231 kts | 300° |
| 2026-05-03 22:57 | 25.49476 | 55.07604 | 4960 ft | 230 kts | 300° |
| 2026-05-03 22:57 | 25.50281 | 55.06150 | 4666 ft | 231 kts | 300° |
| 2026-05-03 22:58 | 25.51120 | 55.04634 | 4384 ft | 231 kts | 300° |
| 2026-05-03 22:58 | 25.51782 | 55.03036 | 4087 ft | 230 kts | 277° |
| 2026-05-03 22:58 | 25.51477 | 55.01349 | 3866 ft | 228 kts | 239° |
| 2026-05-03 22:58 | 25.50307 | 55.00224 | 3587 ft | 232 kts | 211° |
| 2026-05-03 22:59 | 25.48861 | 54.99325 | 3261 ft | 234 kts | 211° |
| 2026-05-03 22:59 | 25.47336 | 54.98936 | 3011 ft | 240 kts | 176° |
| 2026-05-03 22:59 | 25.45848 | 54.99765 | 2934 ft | 244 kts | 133° |
| 2026-05-03 22:59 | 25.44990 | 55.01371 | 2996 ft | 250 kts | 120° |
| 2026-05-03 23:00 | 25.44111 | 55.03057 | 2965 ft | 254 kts | 122° |
| 2026-05-03 23:00 | 25.43197 | 55.04751 | 2966 ft | 253 kts | 123° |
| 2026-05-03 23:00 | 25.42314 | 55.06370 | 2958 ft | 253 kts | 122° |
| 2026-05-03 23:00 | 25.41396 | 55.08011 | 2963 ft | 254 kts | 126° |
| 2026-05-03 23:01 | 25.40394 | 55.09583 | 2967 ft | 245 kts | 127° |
| 2026-05-03 23:01 | 25.39461 | 55.11085 | 2996 ft | 230 kts | 125° |
| 2026-05-03 23:01 | 25.38606 | 55.12527 | 2954 ft | 220 kts | 124° |
| 2026-05-03 23:01 | 25.37796 | 55.13934 | 2944 ft | 219 kts | 123° |
| 2026-05-03 23:02 | 25.36999 | 55.15343 | 2964 ft | 219 kts | 123° |
| 2026-05-03 23:02 | 25.36192 | 55.16785 | 2964 ft | 219 kts | 123° |
| 2026-05-03 23:02 | 25.35394 | 55.18214 | 2966 ft | 219 kts | 123° |
| 2026-05-03 23:02 | 25.34593 | 55.19654 | 2964 ft | 220 kts | 123° |
| 2026-05-03 23:03 | 25.33793 | 55.21096 | 2947 ft | 221 kts | 123° |
| 2026-05-03 23:03 | 25.32986 | 55.22552 | 2654 ft | 224 kts | 123° |
| 2026-05-03 23:03 | 25.32188 | 55.23993 | 2421 ft | 223 kts | 122° |
| 2026-05-03 23:03 | 25.31402 | 55.25408 | 2246 ft | 207 kts | 123° |
| 2026-05-03 23:04 | 25.30684 | 55.26704 | 1982 ft | 194 kts | 123° |
| 2026-05-03 23:04 | 25.30008 | 55.27923 | 1727 ft | 183 kts | 123° |
| 2026-05-03 23:04 | 25.29355 | 55.29100 | 1491 ft | 177 kts | 123° |
| 2026-05-03 23:04 | 25.28714 | 55.30252 | 1290 ft | 175 kts | 123° |
| 2026-05-03 23:05 | 25.28094 | 55.31371 | 1055 ft | 170 kts | 123° |
| 2026-05-03 23:05 | 25.27484 | 55.32472 | 848 ft | 166 kts | 123° |
| 2026-05-03 23:05 | 25.26899 | 55.33527 | 641 ft | 160 kts | 123° |
| 2026-05-03 23:05 | 25.26336 | 55.34538 | 474 ft | 156 kts | 123° |
| 2026-05-03 23:06 | 25.25772 | 55.35557 | 245 ft | 153 kts | 123° |
| 2026-05-03 23:06 | 25.25217 | 55.36556 | 46 ft | 153 kts | 123° |
| 2026-05-03 23:06 | 25.24707 | 55.37459 | 26 ft | 126 kts | 122° |
| 2026-05-03 23:06 | 25.24355 | 55.38110 | 28 ft | 57 kts | 121° |
| 2026-05-03 23:07 | 25.24175 | 55.38378 | 28 ft | 32 kts | 139° |
| 2026-05-03 23:07 | 25.24028 | 55.38475 | 27 ft | 20 kts | 169° |
| 2026-05-03 23:07 | 25.23971 | 55.38419 | 24 ft | 4 kts | 291° |
| 2026-05-03 23:07 | 25.23985 | 55.38394 | 25 ft | 5 kts | 302° |
| 2026-05-03 23:08 | 25.24009 | 55.38353 | 26 ft | 8 kts | 302° |
| 2026-05-03 23:08 | 25.24043 | 55.38293 | 25 ft | 11 kts | 302° |
| 2026-05-03 23:08 | 25.24088 | 55.38214 | 26 ft | 14 kts | 302° |
| 2026-05-03 23:08 | 25.24143 | 55.38118 | 26 ft | 16 kts | 302° |
| 2026-05-03 23:09 | 25.24207 | 55.38005 | 24 ft | 18 kts | 301° |
| 2026-05-03 23:09 | 25.24278 | 55.37876 | 26 ft | 21 kts | 301° |
| 2026-05-03 23:09 | 25.24311 | 55.37816 | 25 ft | 2 kts | 301° |
| 2026-05-03 23:09 | 25.24322 | 55.37796 | 27 ft | 5 kts | 301° |
| 2026-05-03 23:10 | 25.24339 | 55.37760 | 26 ft | 7 kts | 289° |
| 2026-05-03 23:10 | 25.24320 | 55.37705 | 28 ft | 9 kts | 215° |
| 2026-05-03 23:10 | 25.24305 | 55.37639 | 25 ft | 10 kts | 300° |
| 2026-05-03 23:10 | 25.24348 | 55.37568 | 23 ft | 13 kts | 303° |
| 2026-05-03 23:11 | 25.24399 | 55.37477 | 25 ft | 15 kts | 301° |
| 2026-05-03 23:11 | 25.24449 | 55.37386 | 24 ft | 9 kts | 292° |
| 2026-05-03 23:11 | 25.24432 | 55.37339 | 24 ft | 6 kts | 245° |
| 2026-05-03 23:11 | 25.24397 | 55.37300 | 23 ft | 8 kts | 213° |
| 2026-05-03 23:12 | 25.24380 | 55.37288 | 23 ft | 0 kts | 213° |